R.m.baru — HKDM8 — position and weather

sailwx.info

Track history (hours):
 
Tides and Currents Weather Stations Pressure Air Temp Water Temp Dewpoint Dewpoint Depression Visibility Wind Speed Wind Dir Waves Ship Positions

R.m.baru

Last reported at 2017-Nov-17 21:41 UTC. Time now 2017-Nov-20 23:15 UTC.
Position N 10°20' W 075°31'.

Length 28 m; draft 4.7 m.

Type: Tug. MMSI: 730125000.

Date/timePositionNaut miles runAvg speedWind from/ knotsBaromVisibWave heightAir tempDewpointWater temp
2017-Nov-17 21:41N 10°20' W 075°31'0 0.6
2017-Nov-17 21:30N 10°20' W 075°31'1 1.3
2017-Nov-17 21:00N 10°21' W 075°31'0 0.7
2017-Nov-17 20:30N 10°20' W 075°31'1 2.0
2017-Nov-17 20:00N 10°19' W 075°31'0 0.0
2017-Nov-17 19:30N 10°19' W 075°31'0 0.0
2017-Nov-17 19:00N 10°19' W 075°31'0 0.0
2017-Nov-17 18:30N 10°19' W 075°31'0 0.0
2017-Nov-17 18:00N 10°19' W 075°31'0 0.0
2017-Nov-17 17:31N 10°19' W 075°31'0 0.7
2017-Nov-17 17:00N 10°19' W 075°31'0 0.5
2017-Nov-17 16:30N 10°19' W 075°31'1 1.6
2017-Nov-17 16:00N 10°19' W 075°31'0 0.1
2017-Nov-17 15:30N 10°19' W 075°31'0 0.4
2017-Nov-17 15:00N 10°19' W 075°31'1 2.7
2017-Nov-17 14:30N 10°18' W 075°30'0 0.4
2017-Nov-17 14:00N 10°18' W 075°31'2 3.8
2017-Nov-17 13:30N 10°20' W 075°31'0 0.0
2017-Nov-17 13:00N 10°20' W 075°31'0 0.0
2017-Nov-17 12:30N 10°20' W 075°31'0 0.6
2017-Nov-17 12:00N 10°20' W 075°31'2 4.3
2017-Nov-17 11:30N 10°22' W 075°31'0 0.8
2017-Nov-17 11:00N 10°23' W 075°31'0 0.9
2017-Nov-17 10:29N 10°23' W 075°31'0 0.0
2017-Nov-17 10:00N 10°23' W 075°31'0 0.0
2017-Nov-17 09:29N 10°23' W 075°31'0 0.6
2017-Nov-17 09:00N 10°23' W 075°31'0 0.1
2017-Nov-17 08:08N 10°23' W 075°31'0 0.9
2017-Nov-17 08:00N 10°23' W 075°31'5 9.2
2017-Nov-17 07:30N 10°18' W 075°30'0 0.1
2017-Nov-17 07:00N 10°18' W 075°30'1 1.8
2017-Nov-17 06:30N 10°19' W 075°31'0 1.0
2017-Nov-17 06:01N 10°18' W 075°31'0 0.0
2017-Nov-17 05:30N 10°18' W 075°31'1 2.3
2017-Nov-17 05:00N 10°19' W 075°31'1 2.5
2017-Nov-17 04:30N 10°21' W 075°31'0 0.6
2017-Nov-17 04:00N 10°21' W 075°30'0 0.1
2017-Nov-17 03:30N 10°21' W 075°30'2 4.7
2017-Nov-17 03:00N 10°23' W 075°31'0 0.0
2017-Nov-17 02:30N 10°23' W 075°31'0 0.9
2017-Nov-17 02:00N 10°22' W 075°31'0 0.9
2017-Nov-17 01:30N 10°23' W 075°31'0 0.0
2017-Nov-17 01:00N 10°23' W 075°31'2 3.0
2017-Nov-17 00:30N 10°23' W 075°32'1 2.2
2017-Nov-16 23:59N 10°24' W 075°31'0 0.0
2017-Nov-16 23:30N 10°24' W 075°31'0 0.0
2017-Nov-16 23:00N 10°24' W 075°31'1 3.0
2017-Nov-16 22:30N 10°23' W 075°31'0 0.2
2017-Nov-16 22:00N 10°23' W 075°31'1 1.8
2017-Nov-16 21:30N 10°22' W 075°31'1 1.2
2017-Nov-16 21:00N 10°23' W 075°31'0 0.5
2017-Nov-16 20:30N 10°23' W 075°31'0 0.3
2017-Nov-16 20:00N 10°23' W 075°31'0 0.0
2017-Nov-16 19:30N 10°23' W 075°31'0 0.0
2017-Nov-16 19:00N 10°23' W 075°31'0 0.0
2017-Nov-16 18:30N 10°23' W 075°31'0 0.0
2017-Nov-16 18:00N 10°23' W 075°31'0 0.0
2017-Nov-16 17:30N 10°23' W 075°31'0 0.4
2017-Nov-16 17:00N 10°23' W 075°31'1 1.1
2017-Nov-16 16:30N 10°23' W 075°31'2 4.6
2017-Nov-16 16:00N 10°20' W 075°31'1 3.0
2017-Nov-16 15:30N 10°19' W 075°31'0 0.0
2017-Nov-16 15:00N 10°19' W 075°31'1 1.1
2017-Nov-16 14:30N 10°19' W 075°31'0 0.4
2017-Nov-16 14:00N 10°19' W 075°31'1 2.7
2017-Nov-16 13:30N 10°21' W 075°31'0 0.0
2017-Nov-16 13:00N 10°21' W 075°31'0 0.4
2017-Nov-16 12:30N 10°20' W 075°31'1 2.1
2017-Nov-16 12:00N 10°20' W 075°32'1 2.5
2017-Nov-16 11:30N 10°21' W 075°31'0 0.0
2017-Nov-16 11:01N 10°21' W 075°31'0 0.6
2017-Nov-16 10:30N 10°21' W 075°31'0 0.2
2017-Nov-16 10:00N 10°21' W 075°31'2 4.3
2017-Nov-16 09:30N 10°23' W 075°31'0 0.0
2017-Nov-16 08:11N 10°23' W 075°31'0 0.0
2017-Nov-16 08:00N 10°23' W 075°31'0 0.0
2017-Nov-16 07:30N 10°23' W 075°31'0 0.3
2017-Nov-16 06:59N 10°23' W 075°31'0 0.3
2017-Nov-16 06:29N 10°23' W 075°31'0 0.4
2017-Nov-16 06:00N 10°23' W 075°31'0 0.2
2017-Nov-16 05:30N 10°23' W 075°31'0 0.2
2017-Nov-16 05:00N 10°23' W 075°31'0 0.0
2017-Nov-16 04:30N 10°23' W 075°31'0 0.0
2017-Nov-16 04:00N 10°23' W 075°31'0 0.0
2017-Nov-16 03:30N 10°23' W 075°31'0 0.0
2017-Nov-16 03:00N 10°23' W 075°31'0 0.0
2017-Nov-16 02:30N 10°23' W 075°31'0 0.0
2017-Nov-16 02:00N 10°23' W 075°31'5 9.0
2017-Nov-16 01:30N 10°19' W 075°32'1 2.7
2017-Nov-16 01:00N 10°17' W 075°33'0 0.0
2017-Nov-16 00:30N 10°17' W 075°33'0 0.3
2017-Nov-16 00:00N 10°17' W 075°32'4 7.1
2017-Nov-15 23:30N 10°21' W 075°32'3 6.7
2017-Nov-15 23:00N 10°24' W 075°32'0 0.0
2017-Nov-15 22:29N 10°24' W 075°32'0 0.0
2017-Nov-15 22:00N 10°24' W 075°32'1 1.0
2017-Nov-15 21:30N 10°24' W 075°32'0 0.2
2017-Nov-15 21:00N 10°24' W 075°31'0 0.0
2017-Nov-15 20:30N 10°24' W 075°31'0 0.0
2017-Nov-15 20:00N 10°24' W 075°31'0 0.0
2017-Nov-15 19:30N 10°24' W 075°31'0 0.0
2017-Nov-15 19:00N 10°24' W 075°31'1 1.3
2017-Nov-15 18:30N 10°24' W 075°32'1 1.3
2017-Nov-15 18:00N 10°24' W 075°31'0 0.0
2017-Nov-15 17:30N 10°24' W 075°31'0 0.0
2017-Nov-15 17:00N 10°24' W 075°31'0 0.0
2017-Nov-15 16:30N 10°24' W 075°31'0 0.0
2017-Nov-15 16:00N 10°24' W 075°31'0 0.2
2017-Nov-15 15:29N 10°24' W 075°32'0 0.2
2017-Nov-15 15:00N 10°24' W 075°31'0 0.0
2017-Nov-15 14:30N 10°24' W 075°31'1 1.1
2017-Nov-15 14:00N 10°24' W 075°32'0 0.0
2017-Nov-15 13:30N 10°24' W 075°32'2 3.6
2017-Nov-15 13:00N 10°23' W 075°31'0 0.6
2017-Nov-15 12:30N 10°23' W 075°31'1 2.0
2017-Nov-15 12:00N 10°22' W 075°32'1 2.0
2017-Nov-15 11:30N 10°23' W 075°31'0 0.1
2017-Nov-15 11:00N 10°23' W 075°31'0 0.2
2017-Nov-15 10:30N 10°23' W 075°31'  
2017-Nov-12 01:25N 10°24' W 075°31'0 0.0
2017-Nov-12 00:58N 10°24' W 075°31'0 0.0
2017-Nov-12 00:30N 10°24' W 075°31'0 0.0
2017-Nov-12 00:00N 10°24' W 075°31'0 0.8
2017-Nov-11 23:30N 10°24' W 075°32'0 0.7
2017-Nov-11 23:00N 10°24' W 075°31'0 0.1
2017-Nov-11 22:30N 10°24' W 075°31'0 0.0
2017-Nov-11 22:00N 10°24' W 075°31'0 0.0
2017-Nov-11 21:30N 10°24' W 075°31'0 0.0
2017-Nov-11 21:00N 10°24' W 075°31'0 0.0
2017-Nov-11 20:30N 10°24' W 075°31'0 0.0
2017-Nov-11 20:00N 10°24' W 075°31'0 0.0
2017-Nov-11 19:29N 10°24' W 075°31'0 0.0
2017-Nov-11 19:00N 10°24' W 075°31'0 0.0
2017-Nov-11 18:30N 10°24' W 075°31'0 0.0
2017-Nov-11 18:00N 10°24' W 075°31'0 0.0
2017-Nov-11 17:30N 10°24' W 075°31'0 0.6
2017-Nov-11 17:00N 10°24' W 075°32'0 0.6
2017-Nov-11 16:30N 10°24' W 075°31'0 0.0
2017-Nov-11 16:00N 10°24' W 075°31'0 0.0
2017-Nov-11 15:30N 10°24' W 075°31'0 0.0
2017-Nov-11 15:00N 10°24' W 075°31'0 0.0
2017-Nov-11 14:30N 10°24' W 075°31'0 0.0
2017-Nov-11 14:00N 10°24' W 075°31'0 0.0
2017-Nov-11 13:29N 10°24' W 075°31'0 0.0
2017-Nov-11 13:00N 10°24' W 075°31'0 0.0
2017-Nov-11 12:30N 10°24' W 075°31'0 0.0
2017-Nov-11 12:00N 10°24' W 075°31'0 0.0
2017-Nov-11 11:30N 10°24' W 075°31'0 0.0
2017-Nov-11 11:00N 10°24' W 075°31'0 0.0
2017-Nov-11 10:30N 10°24' W 075°31'0 0.0
2017-Nov-11 10:00N 10°24' W 075°31'0 0.0
2017-Nov-11 09:30N 10°24' W 075°31'0 0.0
2017-Nov-11 07:44N 10°24' W 075°31'0 0.0
2017-Nov-11 07:30N 10°24' W 075°31'0 0.0
2017-Nov-11 07:00N 10°24' W 075°31'0 0.0
2017-Nov-11 06:30N 10°24' W 075°31'0 0.0
2017-Nov-11 05:59N 10°24' W 075°31'0 0.0
2017-Nov-11 05:30N 10°24' W 075°31'0 0.0
2017-Nov-11 05:00N 10°24' W 075°31'0 0.0
2017-Nov-11 04:30N 10°24' W 075°31'0 0.0
2017-Nov-11 04:00N 10°24' W 075°31'0 0.0
2017-Nov-11 03:27N 10°24' W 075°31'0 0.0
2017-Nov-11 03:00N 10°24' W 075°31'0 0.0
2017-Nov-11 02:30N 10°24' W 075°31'0 0.0
2017-Nov-11 01:44N 10°24' W 075°31'0 0.0
2017-Nov-11 01:30N 10°24' W 075°31'1 2.2
2017-Nov-11 01:00N 10°23' W 075°32'5 9.4
2017-Nov-11 00:30N 10°19' W 075°34'4 8.8
2017-Nov-11 00:00N 10°23' W 075°37'  
Track history (hours):
 
Tides and Currents Weather Stations Pressure Air Temp Water Temp Dewpoint Dewpoint Depression Visibility Wind Speed Wind Dir Waves Ship Positions

R.m.baru

Last reported at 2017-Nov-17 21:41 UTC. Time now 2017-Nov-20 23:15 UTC.
Position N 10°20' W 075°31'.

Length 28 m; draft 4.7 m.

Type: Tug. MMSI: 730125000.

Date/timePositionNaut miles runAvg speedWind from/ knotsBaromVisibWave heightAir tempDewpointWater temp
2017-Nov-17 21:41N 10°20' W 075°31'0 0.6
2017-Nov-17 21:30N 10°20' W 075°31'1 1.3
2017-Nov-17 21:00N 10°21' W 075°31'0 0.7
2017-Nov-17 20:30N 10°20' W 075°31'1 2.0
2017-Nov-17 20:00N 10°19' W 075°31'0 0.0
2017-Nov-17 19:30N 10°19' W 075°31'0 0.0
2017-Nov-17 19:00N 10°19' W 075°31'0 0.0
2017-Nov-17 18:30N 10°19' W 075°31'0 0.0
2017-Nov-17 18:00N 10°19' W 075°31'0 0.0
2017-Nov-17 17:31N 10°19' W 075°31'0 0.7
2017-Nov-17 17:00N 10°19' W 075°31'0 0.5
2017-Nov-17 16:30N 10°19' W 075°31'1 1.6
2017-Nov-17 16:00N 10°19' W 075°31'0 0.1
2017-Nov-17 15:30N 10°19' W 075°31'0 0.4
2017-Nov-17 15:00N 10°19' W 075°31'1 2.7
2017-Nov-17 14:30N 10°18' W 075°30'0 0.4
2017-Nov-17 14:00N 10°18' W 075°31'2 3.8
2017-Nov-17 13:30N 10°20' W 075°31'0 0.0
2017-Nov-17 13:00N 10°20' W 075°31'0 0.0
2017-Nov-17 12:30N 10°20' W 075°31'0 0.6
2017-Nov-17 12:00N 10°20' W 075°31'2 4.3
2017-Nov-17 11:30N 10°22' W 075°31'0 0.8
2017-Nov-17 11:00N 10°23' W 075°31'0 0.9
2017-Nov-17 10:29N 10°23' W 075°31'0 0.0
2017-Nov-17 10:00N 10°23' W 075°31'0 0.0
2017-Nov-17 09:29N 10°23' W 075°31'0 0.6
2017-Nov-17 09:00N 10°23' W 075°31'0 0.1
2017-Nov-17 08:08N 10°23' W 075°31'0 0.9
2017-Nov-17 08:00N 10°23' W 075°31'5 9.2
2017-Nov-17 07:30N 10°18' W 075°30'0 0.1
2017-Nov-17 07:00N 10°18' W 075°30'1 1.8
2017-Nov-17 06:30N 10°19' W 075°31'0 1.0
2017-Nov-17 06:01N 10°18' W 075°31'0 0.0
2017-Nov-17 05:30N 10°18' W 075°31'1 2.3
2017-Nov-17 05:00N 10°19' W 075°31'1 2.5
2017-Nov-17 04:30N 10°21' W 075°31'0 0.6
2017-Nov-17 04:00N 10°21' W 075°30'0 0.1
2017-Nov-17 03:30N 10°21' W 075°30'2 4.7
2017-Nov-17 03:00N 10°23' W 075°31'0 0.0
2017-Nov-17 02:30N 10°23' W 075°31'0 0.9
2017-Nov-17 02:00N 10°22' W 075°31'0 0.9
2017-Nov-17 01:30N 10°23' W 075°31'0 0.0
2017-Nov-17 01:00N 10°23' W 075°31'2 3.0
2017-Nov-17 00:30N 10°23' W 075°32'1 2.2
2017-Nov-16 23:59N 10°24' W 075°31'0 0.0
2017-Nov-16 23:30N 10°24' W 075°31'0 0.0
2017-Nov-16 23:00N 10°24' W 075°31'1 3.0
2017-Nov-16 22:30N 10°23' W 075°31'0 0.2
2017-Nov-16 22:00N 10°23' W 075°31'1 1.8
2017-Nov-16 21:30N 10°22' W 075°31'1 1.2
2017-Nov-16 21:00N 10°23' W 075°31'0 0.5
2017-Nov-16 20:30N 10°23' W 075°31'0 0.3
2017-Nov-16 20:00N 10°23' W 075°31'0 0.0
2017-Nov-16 19:30N 10°23' W 075°31'0 0.0
2017-Nov-16 19:00N 10°23' W 075°31'0 0.0
2017-Nov-16 18:30N 10°23' W 075°31'0 0.0
2017-Nov-16 18:00N 10°23' W 075°31'0 0.0
2017-Nov-16 17:30N 10°23' W 075°31'0 0.4
2017-Nov-16 17:00N 10°23' W 075°31'1 1.1
2017-Nov-16 16:30N 10°23' W 075°31'2 4.6
2017-Nov-16 16:00N 10°20' W 075°31'1 3.0
2017-Nov-16 15:30N 10°19' W 075°31'0 0.0
2017-Nov-16 15:00N 10°19' W 075°31'1 1.1
2017-Nov-16 14:30N 10°19' W 075°31'0 0.4
2017-Nov-16 14:00N 10°19' W 075°31'1 2.7
2017-Nov-16 13:30N 10°21' W 075°31'0 0.0
2017-Nov-16 13:00N 10°21' W 075°31'0 0.4
2017-Nov-16 12:30N 10°20' W 075°31'1 2.1
2017-Nov-16 12:00N 10°20' W 075°32'1 2.5
2017-Nov-16 11:30N 10°21' W 075°31'0 0.0
2017-Nov-16 11:01N 10°21' W 075°31'0 0.6
2017-Nov-16 10:30N 10°21' W 075°31'0 0.2
2017-Nov-16 10:00N 10°21' W 075°31'2 4.3
2017-Nov-16 09:30N 10°23' W 075°31'0 0.0
2017-Nov-16 08:11N 10°23' W 075°31'0 0.0
2017-Nov-16 08:00N 10°23' W 075°31'0 0.0
2017-Nov-16 07:30N 10°23' W 075°31'0 0.3
2017-Nov-16 06:59N 10°23' W 075°31'0 0.3
2017-Nov-16 06:29N 10°23' W 075°31'0 0.4
2017-Nov-16 06:00N 10°23' W 075°31'0 0.2
2017-Nov-16 05:30N 10°23' W 075°31'0 0.2
2017-Nov-16 05:00N 10°23' W 075°31'0 0.0
2017-Nov-16 04:30N 10°23' W 075°31'0 0.0
2017-Nov-16 04:00N 10°23' W 075°31'0 0.0
2017-Nov-16 03:30N 10°23' W 075°31'0 0.0
2017-Nov-16 03:00N 10°23' W 075°31'0 0.0
2017-Nov-16 02:30N 10°23' W 075°31'0 0.0
2017-Nov-16 02:00N 10°23' W 075°31'5 9.0
2017-Nov-16 01:30N 10°19' W 075°32'1 2.7
2017-Nov-16 01:00N 10°17' W 075°33'0 0.0
2017-Nov-16 00:30N 10°17' W 075°33'0 0.3
2017-Nov-16 00:00N 10°17' W 075°32'4 7.1
2017-Nov-15 23:30N 10°21' W 075°32'3 6.7
2017-Nov-15 23:00N 10°24' W 075°32'0 0.0
2017-Nov-15 22:29N 10°24' W 075°32'0 0.0
2017-Nov-15 22:00N 10°24' W 075°32'1 1.0
2017-Nov-15 21:30N 10°24' W 075°32'0 0.2
2017-Nov-15 21:00N 10°24' W 075°31'0 0.0
2017-Nov-15 20:30N 10°24' W 075°31'0 0.0
2017-Nov-15 20:00N 10°24' W 075°31'0 0.0
2017-Nov-15 19:30N 10°24' W 075°31'0 0.0
2017-Nov-15 19:00N 10°24' W 075°31'1 1.3
2017-Nov-15 18:30N 10°24' W 075°32'1 1.3
2017-Nov-15 18:00N 10°24' W 075°31'0 0.0
2017-Nov-15 17:30N 10°24' W 075°31'0 0.0
2017-Nov-15 17:00N 10°24' W 075°31'0 0.0
2017-Nov-15 16:30N 10°24' W 075°31'0 0.0
2017-Nov-15 16:00N 10°24' W 075°31'0 0.2
2017-Nov-15 15:29N 10°24' W 075°32'0 0.2
2017-Nov-15 15:00N 10°24' W 075°31'0 0.0
2017-Nov-15 14:30N 10°24' W 075°31'1 1.1
2017-Nov-15 14:00N 10°24' W 075°32'0 0.0
2017-Nov-15 13:30N 10°24' W 075°32'2 3.6
2017-Nov-15 13:00N 10°23' W 075°31'0 0.6
2017-Nov-15 12:30N 10°23' W 075°31'1 2.0
2017-Nov-15 12:00N 10°22' W 075°32'1 2.0
2017-Nov-15 11:30N 10°23' W 075°31'0 0.1
2017-Nov-15 11:00N 10°23' W 075°31'0 0.2
2017-Nov-15 10:30N 10°23' W 075°31'  
2017-Nov-12 01:25N 10°24' W 075°31'0 0.0
2017-Nov-12 00:58N 10°24' W 075°31'0 0.0
2017-Nov-12 00:30N 10°24' W 075°31'0 0.0
2017-Nov-12 00:00N 10°24' W 075°31'0 0.8
2017-Nov-11 23:30N 10°24' W 075°32'0 0.7
2017-Nov-11 23:00N 10°24' W 075°31'0 0.1
2017-Nov-11 22:30N 10°24' W 075°31'0 0.0
2017-Nov-11 22:00N 10°24' W 075°31'0 0.0
2017-Nov-11 21:30N 10°24' W 075°31'0 0.0
2017-Nov-11 21:00N 10°24' W 075°31'0 0.0
2017-Nov-11 20:30N 10°24' W 075°31'0 0.0
2017-Nov-11 20:00N 10°24' W 075°31'0 0.0
2017-Nov-11 19:29N 10°24' W 075°31'0 0.0
2017-Nov-11 19:00N 10°24' W 075°31'0 0.0
2017-Nov-11 18:30N 10°24' W 075°31'0 0.0
2017-Nov-11 18:00N 10°24' W 075°31'0 0.0
2017-Nov-11 17:30N 10°24' W 075°31'0 0.6
2017-Nov-11 17:00N 10°24' W 075°32'0 0.6
2017-Nov-11 16:30N 10°24' W 075°31'0 0.0
2017-Nov-11 16:00N 10°24' W 075°31'0 0.0
2017-Nov-11 15:30N 10°24' W 075°31'0 0.0
2017-Nov-11 15:00N 10°24' W 075°31'0 0.0
2017-Nov-11 14:30N 10°24' W 075°31'0 0.0
2017-Nov-11 14:00N 10°24' W 075°31'0 0.0
2017-Nov-11 13:29N 10°24' W 075°31'0 0.0
2017-Nov-11 13:00N 10°24' W 075°31'0 0.0
2017-Nov-11 12:30N 10°24' W 075°31'0 0.0
2017-Nov-11 12:00N 10°24' W 075°31'0 0.0
2017-Nov-11 11:30N 10°24' W 075°31'0 0.0
2017-Nov-11 11:00N 10°24' W 075°31'0 0.0
2017-Nov-11 10:30N 10°24' W 075°31'0 0.0
2017-Nov-11 10:00N 10°24' W 075°31'0 0.0
2017-Nov-11 09:30N 10°24' W 075°31'0 0.0
2017-Nov-11 07:44N 10°24' W 075°31'0 0.0
2017-Nov-11 07:30N 10°24' W 075°31'0 0.0
2017-Nov-11 07:00N 10°24' W 075°31'0 0.0
2017-Nov-11 06:30N 10°24' W 075°31'0 0.0
2017-Nov-11 05:59N 10°24' W 075°31'0 0.0
2017-Nov-11 05:30N 10°24' W 075°31'0 0.0
2017-Nov-11 05:00N 10°24' W 075°31'0 0.0
2017-Nov-11 04:30N 10°24' W 075°31'0 0.0
2017-Nov-11 04:00N 10°24' W 075°31'0 0.0
2017-Nov-11 03:27N 10°24' W 075°31'0 0.0
2017-Nov-11 03:00N 10°24' W 075°31'0 0.0
2017-Nov-11 02:30N 10°24' W 075°31'0 0.0
2017-Nov-11 01:44N 10°24' W 075°31'0 0.0
2017-Nov-11 01:30N 10°24' W 075°31'1 2.2
2017-Nov-11 01:00N 10°23' W 075°32'5 9.4
2017-Nov-11 00:30N 10°19' W 075°34'4 8.8
2017-Nov-11 00:00N 10°23' W 075°37'  

Dump ship's entire track history